Time;durP1;ratioP1;P1;durP2;ratioP2;P2;SDS_P1;SDS_P2;PMS_P1;PMS_P2;Temp;Humidity;BMP_temperature;BMP_pressure;BME280_temperature;BME280_humidity;BME280_pressure;Samples;Min_cycle;Max_cycle;Signal;HPM_P1;HPM_P2
2024/04/25 00:01:09;;;;;;;3.47;2.22;;;18.00;51.50;;;;;;6483168;22;20226;-84
2024/04/25 00:03:34;;;;;;;3.97;2.10;;;18.10;51.60;;;;;;6441304;22;20328;-83
2024/04/25 00:06:01;;;;;;;3.13;2.20;;;18.00;51.40;;;;;;6483026;22;20218;-83
2024/04/25 00:08:27;;;;;;;2.55;2.10;;;18.00;51.50;;;;;;6482925;22;20269;-83
2024/04/25 00:10:54;;;;;;;3.72;2.20;;;18.10;51.50;;;;;;6483437;22;20568;-83
2024/04/25 00:13:25;;;;;;;2.47;2.17;;;18.10;51.60;;;;;;6483444;22;20218;-83
2024/04/25 00:15:53;;;;;;;2.92;2.40;;;18.00;51.40;;;;;;6485250;22;20549;-83
2024/04/25 00:18:19;;;;;;;2.50;2.10;;;18.00;51.40;;;;;;6441611;22;20218;-83
2024/04/25 00:20:45;;;;;;;2.58;1.92;;;18.00;51.60;;;;;;6440483;22;20315;-83
2024/04/25 00:23:11;;;;;;;3.42;2.13;;;18.10;51.60;;;;;;6525849;22;20218;-83
2024/04/25 00:25:40;;;;;;;2.92;1.95;;;18.10;51.50;;;;;;6483593;22;20560;-83
2024/04/25 00:28:07;;;;;;;3.45;2.17;;;18.10;51.50;;;;;;6440497;22;20218;-83
2024/04/25 00:30:33;;;;;;;3.38;2.30;;;18.00;51.50;;;;;;6440994;22;20260;-84
2024/04/25 00:32:59;;;;;;;2.63;2.00;;;18.10;51.50;;;;;;6482888;22;20327;-83
2024/04/25 00:35:26;;;;;;;3.30;2.03;;;18.00;51.50;;;;;;6525878;22;20854;-83
2024/04/25 00:37:51;;;;;;;2.78;2.10;;;18.20;51.70;;;;;;6442105;22;20222;-83
2024/04/25 00:40:17;;;;;;;2.67;2.13;;;18.10;51.50;;;;;;6442374;22;20332;-83
2024/04/25 00:42:43;;;;;;;3.38;2.17;;;18.00;52.20;;;;;;6485132;22;20218;-83
2024/04/25 00:45:09;;;;;;;3.65;2.38;;;18.00;51.40;;;;;;6527208;22;20549;-82
2024/04/25 00:47:38;;;;;;;3.22;2.10;;;18.00;51.40;;;;;;6527747;22;20214;-83
2024/04/25 00:50:06;;;;;;;2.53;2.10;;;18.00;51.40;;;;;;6484760;22;20230;-83
2024/04/25 00:52:35;;;;;;;2.67;2.33;;;18.00;51.50;;;;;;6442975;22;20228;-82
2024/04/25 00:55:04;;;;;;;2.90;2.40;;;18.00;51.50;;;;;;6526700;22;20264;-83
2024/04/25 00:57:30;;;;;;;3.92;2.10;;;18.00;51.60;;;;;;6527469;22;20211;-83
2024/04/25 00:59:57;;;;;;;2.65;1.92;;;18.00;51.60;;;;;;6527607;22;20249;-83
2024/04/25 01:02:25;;;;;;;3.10;2.30;;;18.00;51.60;;;;;;6442361;22;20225;-83
2024/04/25 01:04:52;;;;;;;3.20;2.30;;;17.90;51.50;;;;;;6527349;22;20312;-82
2024/04/25 01:07:19;;;;;;;2.97;2.40;;;18.00;51.60;;;;;;6484619;22;20221;-83
2024/04/25 01:09:45;;;;;;;3.75;2.63;;;18.00;51.60;;;;;;6529585;21;20807;-83
2024/04/25 01:12:11;;;;;;;4.43;2.20;;;17.90;51.60;;;;;;6442363;22;20214;-83
2024/04/25 01:14:37;;;;;;;2.88;2.30;;;18.00;51.50;;;;;;6527534;22;20214;-83
2024/04/25 01:17:05;;;;;;;3.00;2.15;;;18.00;51.40;;;;;;6484607;22;20261;-83
2024/04/25 01:19:31;;;;;;;4.15;2.20;;;18.00;52.10;;;;;;6441944;22;20273;-81
2024/04/25 01:21:56;;;;;;;3.72;2.40;;;18.00;51.40;;;;;;6484329;22;20217;-83
2024/04/25 01:24:27;;;;;;;3.95;2.10;;;18.00;51.50;;;;;;6484386;22;20234;-83
2024/04/25 01:26:57;;;;;;;2.50;2.10;;;18.00;51.60;;;;;;6484872;22;20300;-82
2024/04/25 01:29:24;;;;;;;2.88;2.10;;;18.00;51.60;;;;;;6399676;22;20312;-83
2024/04/25 01:31:51;;;;;;;2.80;2.00;;;17.90;51.60;;;;;;6484167;22;20232;-82
2024/04/25 01:34:17;;;;;;;3.17;2.10;;;17.90;51.60;;;;;;6484354;22;20312;-83
2024/04/25 01:36:43;;;;;;;2.28;2.03;;;18.00;51.60;;;;;;6442132;22;20225;-83
2024/04/25 01:39:09;;;;;;;2.55;2.10;;;17.90;51.60;;;;;;6442411;22;20277;-83
2024/04/25 01:41:37;;;;;;;2.20;2.00;;;17.90;51.60;;;;;;6484645;22;20260;-82
2024/04/25 01:44:04;;;;;;;2.75;2.30;;;18.00;51.70;;;;;;6527474;22;20261;-83
2024/04/25 01:46:30;;;;;;;3.22;2.25;;;18.00;51.70;;;;;;6443215;22;20221;-83
2024/04/25 01:48:56;;;;;;;3.00;2.30;;;17.90;51.70;;;;;;6441897;22;20612;-83
2024/04/25 01:51:22;;;;;;;3.35;2.42;;;17.90;51.70;;;;;;6442275;22;20712;-83
2024/04/25 01:53:48;;;;;;;3.45;2.20;;;17.90;51.80;;;;;;6485002;22;20324;-82
2024/04/25 01:56:14;;;;;;;2.50;2.00;;;17.90;51.80;;;;;;6484636;22;20230;-82
2024/04/25 01:58:40;;;;;;;3.50;2.25;;;17.90;51.80;;;;;;6485356;22;20253;-82
2024/04/25 02:01:06;;;;;;;4.43;2.42;;;17.90;51.70;;;;;;6485652;22;20662;-82
2024/04/25 02:03:31;;;;;;;3.25;2.35;;;17.90;51.80;;;;;;6486198;22;20301;-82
2024/04/25 02:05:59;;;;;;;3.40;2.38;;;17.90;51.70;;;;;;6441666;22;20253;-82
2024/04/25 02:08:29;;;;;;;3.53;2.63;;;17.90;51.80;;;;;;6483876;22;20791;-83
2024/04/25 02:10:56;;;;;;;4.13;2.40;;;17.90;51.90;;;;;;6484251;22;20249;-83
2024/04/25 02:13:22;;;;;;;3.65;2.42;;;17.90;51.70;;;;;;6441792;22;20213;-83
2024/04/25 02:15:47;;;;;;;3.22;2.20;;;17.90;51.70;;;;;;6529436;21;20724;-83
2024/04/25 02:18:13;;;;;;;3.50;2.50;;;17.90;51.70;;;;;;6442311;22;20244;-83
2024/04/25 02:26:07;;;;;;;3.90;2.30;;;17.80;51.70;;;;;;6489478;22;20222;-83
2024/04/25 02:28:34;;;;;;;3.58;2.50;;;17.90;51.80;;;;;;6526916;22;20269;-83
2024/04/25 02:31:02;;;;;;;3.08;2.28;;;17.90;51.70;;;;;;6484432;22;20261;-83
2024/04/25 02:33:28;;;;;;;2.85;2.50;;;17.90;51.80;;;;;;6441897;22;20243;-82
2024/04/25 02:35:56;;;;;;;3.35;2.60;;;17.90;51.80;;;;;;6442345;22;20218;-82
2024/04/25 02:38:23;;;;;;;3.72;2.58;;;17.80;51.70;;;;;;6398541;22;20262;-84
2024/04/25 02:40:49;;;;;;;2.58;2.22;;;17.80;51.60;;;;;;6441294;22;20273;-83
2024/04/25 02:43:17;;;;;;;2.85;2.22;;;17.90;51.60;;;;;;6483238;22;20526;-83
2024/04/25 02:45:43;;;;;;;2.88;2.38;;;17.90;51.70;;;;;;6441698;22;20222;-83
2024/04/25 02:48:09;;;;;;;3.53;2.88;;;17.90;51.70;;;;;;6484116;22;20226;-83
2024/04/25 02:50:36;;;;;;;3.58;2.45;;;17.90;51.60;;;;;;6483647;22;20328;-83
2024/04/25 02:53:03;;;;;;;2.75;2.17;;;17.90;51.70;;;;;;6441246;22;20316;-83
2024/04/25 02:55:29;;;;;;;3.83;2.70;;;17.80;52.30;;;;;;6482987;22;20261;-83
2024/04/25 02:57:59;;;;;;;3.30;2.53;;;17.90;51.70;;;;;;6441731;22;20226;-83
2024/04/25 03:00:24;;;;;;;4.57;2.40;;;17.80;51.70;;;;;;6440356;22;20214;-83
2024/04/25 03:02:50;;;;;;;3.25;2.45;;;17.90;51.70;;;;;;6441189;22;20257;-83
2024/04/25 03:05:16;;;;;;;4.20;2.40;;;17.90;51.60;;;;;;6526261;22;20732;-83
2024/04/25 03:07:42;;;;;;;2.50;2.28;;;17.90;51.70;;;;;;6483556;22;20612;-82
2024/04/25 03:10:08;;;;;;;3.08;2.50;;;17.80;51.60;;;;;;6441013;22;20326;-83
2024/04/25 03:12:35;;;;;;;3.58;2.63;;;17.80;51.60;;;;;;6526440;22;20218;-83
2024/04/25 03:15:01;;;;;;;2.55;2.33;;;17.90;51.70;;;;;;6441488;22;20266;-83
2024/04/25 03:17:28;;;;;;;2.92;2.53;;;17.90;51.70;;;;;;6526244;22;20214;-83
2024/04/25 03:19:55;;;;;;;3.58;2.80;;;17.90;51.70;;;;;;6483054;22;20646;-83
2024/04/25 03:22:22;;;;;;;3.92;2.53;;;17.80;51.60;;;;;;6526170;22;20277;-83
2024/04/25 03:24:48;;;;;;;3.88;2.88;;;17.90;51.70;;;;;;6441038;22;20278;-83
2024/04/25 03:27:14;;;;;;;3.15;2.40;;;17.80;51.70;;;;;;6483846;22;20305;-83
2024/04/25 03:29:40;;;;;;;4.75;2.72;;;17.80;51.80;;;;;;6441389;22;20230;-83
2024/04/25 03:32:16;;;;;;;2.85;2.40;;;17.90;51.60;;;;;;6483879;22;20698;-83
2024/04/25 03:34:41;;;;;;;3.45;2.67;;;17.90;51.70;;;;;;6449894;22;20249;-83
2024/04/25 03:37:07;;;;;;;3.10;2.35;;;17.80;51.70;;;;;;6486479;22;21118;-83
2024/04/25 03:39:33;;;;;;;2.88;2.42;;;17.80;51.70;;;;;;6487013;22;20226;-82
2024/04/25 03:42:00;;;;;;;3.70;2.50;;;17.80;51.80;;;;;;6443401;22;20222;-83
2024/04/25 03:44:25;;;;;;;2.88;2.40;;;17.80;51.80;;;;;;6485947;22;20775;-83
2024/04/25 03:46:52;;;;;;;2.80;2.40;;;17.80;51.80;;;;;;6486938;22;20214;-84
2024/04/25 03:49:17;;;;;;;3.00;2.40;;;17.80;51.80;;;;;;6486410;22;20222;-84
2024/04/25 03:51:43;;;;;;;3.65;2.40;;;17.80;51.70;;;;;;6485390;22;20256;-82
2024/04/25 03:54:10;;;;;;;3.50;2.60;;;17.80;51.80;;;;;;6485548;22;20638;-83
2024/04/25 03:56:35;;;;;;;4.45;2.85;;;17.80;51.70;;;;;;6526635;21;20218;-83
2024/04/25 03:59:01;;;;;;;3.55;2.58;;;17.80;51.60;;;;;;6441242;22;20249;-83
2024/04/25 04:01:27;;;;;;;3.25;2.38;;;17.80;51.60;;;;;;6526207;22;20260;-83
2024/04/25 04:03:53;;;;;;;3.33;2.97;;;17.80;51.60;;;;;;6481695;22;20292;-84
2024/04/25 04:06:19;;;;;;;3.60;2.67;;;17.80;51.60;;;;;;6526854;22;20214;-83
2024/04/25 04:08:45;;;;;;;3.88;2.33;;;17.80;51.60;;;;;;6525649;22;20214;-83
2024/04/25 04:11:11;;;;;;;3.22;2.72;;;17.80;51.70;;;;;;6525994;22;20325;-83
2024/04/25 04:13:37;;;;;;;3.25;2.50;;;17.80;51.70;;;;;;6527968;22;20270;-83
2024/04/25 04:16:04;;;;;;;2.80;2.40;;;17.80;51.70;;;;;;6484954;22;20261;-83
2024/04/25 04:18:29;;;;;;;2.47;2.28;;;17.80;51.70;;;;;;6443109;22;20692;-83
2024/04/25 04:20:55;;;;;;;3.20;2.58;;;17.80;51.70;;;;;;6484788;22;20218;-82
2024/04/25 04:23:22;;;;;;;4.18;2.38;;;17.90;51.80;;;;;;6528214;22;20503;-83
2024/04/25 04:25:49;;;;;;;3.30;2.47;;;17.80;51.70;;;;;;6489141;22;20219;-82
2024/04/25 04:28:15;;;;;;;2.72;2.40;;;17.80;51.70;;;;;;6363036;22;20256;-83
2024/04/25 04:30:41;;;;;;;3.03;2.70;;;17.80;51.60;;;;;;6488624;22;20214;-83
2024/04/25 04:33:08;;;;;;;2.90;2.60;;;17.80;51.60;;;;;;6445289;22;20222;-82
2024/04/25 04:35:34;;;;;;;3.38;2.70;;;17.80;51.70;;;;;;6445559;22;20233;-82
2024/04/25 04:38:00;;;;;;;3.13;2.50;;;17.80;51.70;;;;;;6445147;22;20218;-82
2024/04/25 04:40:25;;;;;;;3.28;2.65;;;17.80;51.70;;;;;;6487217;22;20277;-82
2024/04/25 04:42:51;;;;;;;3.63;2.70;;;17.80;51.80;;;;;;6487237;22;20214;-82
2024/04/25 04:45:17;;;;;;;3.30;2.50;;;17.80;51.90;;;;;;6530496;22;20210;-83
2024/04/25 04:47:43;;;;;;;3.63;2.80;;;17.80;51.90;;;;;;6488356;22;20654;-83
2024/04/25 04:50:10;;;;;;;3.58;2.95;;;17.80;51.80;;;;;;6488118;22;20320;-83
2024/04/25 04:52:35;;;;;;;2.95;2.63;;;17.80;51.80;;;;;;6402306;22;20218;-83
2024/04/25 04:55:01;;;;;;;3.78;2.58;;;17.70;51.70;;;;;;6486864;22;20714;-83
2024/04/25 04:57:28;;;;;;;3.63;2.80;;;17.70;51.80;;;;;;6487334;22;20218;-82
2024/04/25 04:59:54;;;;;;;3.20;2.45;;;17.80;51.90;;;;;;6488166;22;20245;-82
2024/04/25 05:02:20;;;;;;;3.20;2.60;;;17.80;51.90;;;;;;6529852;22;20222;-82
2024/04/25 05:04:46;;;;;;;2.90;2.42;;;17.80;51.70;;;;;;6443048;22;20248;-82
2024/04/25 05:07:12;;;;;;;5.10;2.78;;;17.80;51.80;;;;;;6442541;22;20234;-82
2024/04/25 05:09:38;;;;;;;3.33;2.45;;;17.80;51.70;;;;;;6484608;22;20218;-83
2024/04/25 05:12:05;;;;;;;3.38;2.45;;;17.80;51.60;;;;;;6527488;22;20218;-83
2024/04/25 05:14:31;;;;;;;3.88;2.92;;;17.80;51.60;;;;;;6442693;22;20222;-82
2024/04/25 05:16:57;;;;;;;3.97;3.05;;;17.80;51.70;;;;;;6484793;22;20244;-83
2024/04/25 05:19:24;;;;;;;2.95;2.63;;;17.70;51.60;;;;;;6527417;22;20329;-83
2024/04/25 05:21:55;;;;;;;3.25;2.72;;;17.70;51.60;;;;;;6527371;22;20214;-83
2024/04/25 05:24:21;;;;;;;3.70;2.60;;;17.90;51.70;;;;;;6441346;22;20306;-84
2024/04/25 05:26:47;;;;;;;3.28;2.60;;;17.80;51.70;;;;;;6527716;22;20214;-83
2024/04/25 05:29:12;;;;;;;3.85;2.70;;;17.80;51.60;;;;;;6485307;22;20218;-83
2024/04/25 05:31:39;;;;;;;3.72;2.60;;;17.70;51.70;;;;;;6442343;22;20215;-83
2024/04/25 05:34:06;;;;;;;3.55;2.63;;;17.80;51.90;;;;;;6442810;22;20646;-83
2024/04/25 05:36:33;;;;;;;3.05;2.50;;;17.70;51.90;;;;;;6442668;22;20266;-83
2024/04/25 05:38:59;;;;;;;3.10;2.50;;;17.70;51.90;;;;;;6493573;21;20226;-83
2024/04/25 05:41:25;;;;;;;2.92;2.50;;;17.70;51.90;;;;;;6536757;21;20259;-83
2024/04/25 05:43:51;;;;;;;3.90;2.95;;;17.70;51.80;;;;;;6451648;21;20247;-83
2024/04/25 05:46:20;;;;;;;3.15;2.30;;;17.80;51.90;;;;;;6494031;21;20221;-83
2024/04/25 05:48:46;;;;;;;3.65;2.90;;;17.70;51.70;;;;;;6454188;21;20659;-83
2024/04/25 05:51:13;;;;;;;3.33;2.60;;;17.70;51.70;;;;;;6536729;21;20213;-82
2024/04/25 05:53:40;;;;;;;3.33;2.40;;;17.80;51.70;;;;;;6493637;21;20292;-83
2024/04/25 05:56:07;;;;;;;3.47;2.75;;;17.80;51.80;;;;;;6492375;21;20221;-82
2024/04/25 05:58:33;;;;;;;3.42;2.97;;;17.80;51.80;;;;;;6536268;21;20217;-82
2024/04/25 06:00:58;;;;;;;3.53;2.63;;;17.80;51.70;;;;;;6493092;21;20606;-83
2024/04/25 06:03:24;;;;;;;3.03;2.70;;;17.70;51.80;;;;;;6493523;21;20217;-82
2024/04/25 06:05:50;;;;;;;4.05;2.83;;;17.70;51.70;;;;;;6494192;21;20220;-83
2024/04/25 06:08:16;;;;;;;5.03;2.42;;;17.80;51.60;;;;;;6494439;21;20668;-83
2024/04/25 06:10:42;;;;;;;5.43;2.78;;;17.80;51.50;;;;;;6450674;21;20214;-84
2024/04/25 06:13:08;;;;;;;3.10;2.30;;;17.80;51.70;;;;;;6492508;21;20276;-84
2024/04/25 06:15:34;;;;;;;3.72;2.70;;;17.90;51.50;;;;;;6535658;21;20213;-83
2024/04/25 06:18:02;;;;;;;5.63;2.55;;;17.90;51.30;;;;;;6535131;21;20255;-84
2024/04/25 06:20:28;;;;;;;3.85;2.55;;;17.90;51.30;;;;;;6492578;21;20568;-83
2024/04/25 06:22:53;;;;;;;2.83;2.38;;;17.90;51.10;;;;;;6450191;21;20224;-84
2024/04/25 06:25:19;;;;;;;5.50;2.70;;;17.90;51.10;;;;;;6535115;21;20239;-84
2024/04/25 06:27:46;;;;;;;3.60;2.60;;;18.00;51.30;;;;;;6450010;21;21008;-83
2024/04/25 06:30:14;;;;;;;4.30;2.40;;;18.00;51.00;;;;;;6492913;21;20707;-83
2024/04/25 06:32:40;;;;;;;3.28;2.60;;;18.00;51.20;;;;;;6450724;21;20240;-83
2024/04/25 06:35:06;;;;;;;3.28;2.65;;;18.00;50.80;;;;;;6450603;21;20225;-84
2024/04/25 06:37:32;;;;;;;3.22;2.33;;;18.00;50.90;;;;;;6492689;21;20213;-84
2024/04/25 06:39:58;;;;;;;3.53;2.65;;;18.00;51.00;;;;;;6536834;21;20233;-84
2024/04/25 06:42:23;;;;;;;2.65;2.30;;;18.10;51.00;;;;;;6498015;21;20649;-84
2024/04/25 06:44:49;;;;;;;3.38;2.67;;;18.10;50.80;;;;;;6452145;21;20325;-84
2024/04/25 06:47:15;;;;;;;3.88;2.40;;;18.00;50.90;;;;;;6495654;21;20239;-83
2024/04/25 06:49:43;;;;;;;3.38;2.55;;;18.10;51.00;;;;;;6541195;21;20540;-84
2024/04/25 06:52:12;;;;;;;2.85;2.40;;;18.10;51.00;;;;;;6456570;21;20213;-84
2024/04/25 06:54:38;;;;;;;3.45;2.50;;;18.00;50.90;;;;;;6537857;21;20307;-85
2024/04/25 06:57:11;;;;;;;2.88;2.40;;;18.10;50.80;;;;;;6500291;21;20225;-83
2024/04/25 06:59:39;;;;;;;2.72;2.33;;;18.10;50.60;;;;;;6453746;21;20213;-84
2024/04/25 07:02:06;;;;;;;3.00;2.58;;;18.10;50.70;;;;;;6496470;21;20217;-83
2024/04/25 07:04:32;;;;;;;2.80;2.38;;;18.10;50.70;;;;;;6458267;21;20221;-84
2024/04/25 07:06:58;;;;;;;3.08;2.33;;;18.10;50.70;;;;;;6452169;21;20220;-84
2024/04/25 07:09:24;;;;;;;2.45;2.08;;;18.20;50.70;;;;;;6432052;22;20265;-84
2024/04/25 07:11:50;;;;;;;2.75;2.17;;;18.10;50.40;;;;;;6390808;22;20223;-85
2024/04/25 07:14:18;;;;;;;3.83;2.47;;;18.10;50.50;;;;;;6391570;22;20275;-84
2024/04/25 07:16:44;;;;;;;4.90;2.30;;;18.20;51.20;;;;;;6391302;22;20219;-84
2024/04/25 07:19:13;;;;;;;2.45;2.17;;;18.20;50.40;;;;;;6434759;22;20261;-85
2024/04/25 07:21:39;;;;;;;2.75;2.40;;;18.20;50.50;;;;;;6391987;22;20227;-84
2024/04/25 07:24:07;;;;;;;2.65;2.03;;;18.10;50.60;;;;;;6433338;22;20564;-85
2024/04/25 07:26:33;;;;;;;2.40;2.03;;;18.20;50.40;;;;;;6432273;22;20250;-84
2024/04/25 07:29:03;;;;;;;2.70;2.25;;;18.20;50.50;;;;;;6391531;22;20223;-84
2024/04/25 07:31:31;;;;;;;2.92;2.20;;;18.20;50.60;;;;;;6310281;22;20227;-84
2024/04/25 07:33:57;;;;;;;2.40;2.20;;;18.20;50.30;;;;;;6432381;22;20243;-84
2024/04/25 07:36:23;;;;;;;2.47;2.17;;;18.20;50.80;;;;;;6393028;22;20253;-85
2024/04/25 07:38:49;;;;;;;2.50;2.20;;;18.10;50.80;;;;;;6432918;22;20275;-83
2024/04/25 07:41:15;;;;;;;2.63;2.22;;;18.20;51.70;;;;;;6470354;22;20221;-83
2024/04/25 07:43:46;;;;;;;3.20;2.55;;;18.10;51.00;;;;;;6445243;22;20214;-83
2024/04/25 07:46:13;;;;;;;2.67;2.25;;;18.10;51.10;;;;;;6487665;22;20260;-84
2024/04/25 07:48:43;;;;;;;2.47;2.20;;;18.10;51.00;;;;;;6530211;22;20258;-84
2024/04/25 07:51:10;;;;;;;3.17;2.10;;;18.10;51.10;;;;;;6488365;22;20244;-84
2024/04/25 07:53:45;;;;;;;2.78;2.35;;;18.10;50.90;;;;;;6448382;22;20269;-83
2024/04/25 07:56:11;;;;;;;2.80;2.22;;;18.20;51.00;;;;;;6494261;22;20217;-85
2024/04/25 07:58:39;;;;;;;2.92;1.98;;;18.20;51.00;;;;;;6529946;22;20209;-85
2024/04/25 08:01:12;;;;;;;2.13;1.92;;;18.10;50.90;;;;;;6446085;22;20545;-84
2024/04/25 08:03:40;;;;;;;3.53;2.22;;;18.20;50.80;;;;;;6487556;22;20214;-84
2024/04/25 08:06:06;;;;;;;9.88;2.53;;;18.10;50.90;;;;;;6530234;22;20214;-82
2024/04/25 08:08:39;;;;;;;5.78;2.53;;;18.20;51.10;;;;;;6444606;22;20651;-84
2024/04/25 08:11:11;;;;;;;9.52;2.20;;;18.20;51.10;;;;;;6451410;22;20214;-84
2024/04/25 08:13:40;;;;;;;3.75;2.10;;;18.10;51.20;;;;;;6450262;22;20214;-83
2024/04/25 08:16:13;;;;;;;4.15;2.17;;;18.20;51.00;;;;;;6490128;22;20230;-83
2024/04/25 08:18:43;;;;;;;5.60;2.20;;;18.20;51.40;;;;;;6443614;22;20222;-83
2024/04/25 08:21:16;;;;;;;4.93;2.15;;;18.20;50.90;;;;;;6443700;22;20682;-83
2024/04/25 08:23:46;;;;;;;4.13;1.95;;;18.30;50.40;;;;;;6447640;22;20308;-83
2024/04/25 08:26:19;;;;;;;3.00;1.85;;;18.40;50.50;;;;;;6488591;22;20351;-84
2024/04/25 08:28:45;;;;;;;2.92;1.50;;;18.40;50.60;;;;;;6447737;22;20218;-82
2024/04/25 08:31:14;;;;;;;4.63;2.00;;;18.40;50.30;;;;;;6446987;22;20662;-83
2024/04/25 08:33:42;;;;;;;2.45;1.92;;;18.50;50.30;;;;;;6403559;22;20234;-84
2024/04/25 08:36:10;;;;;;;4.63;2.00;;;18.40;50.20;;;;;;6448312;22;20210;-83
2024/04/25 08:38:40;;;;;;;3.45;1.98;;;18.40;50.40;;;;;;6489900;22;20320;-83
2024/04/25 08:41:09;;;;;;;3.42;1.80;;;18.50;50.50;;;;;;6490565;22;20218;-83
2024/04/25 08:43:46;;;;;;;3.58;1.67;;;18.40;50.60;;;;;;6325166;22;20246;-82
2024/04/25 08:46:26;;;;;;;;;;;;;;;;;;;;;
2024/04/25 08:48:56;;;;;;;7.22;2.05;;;18.40;51.10;;;;;;6425149;22;20230;-84
2024/04/25 08:51:25;;;;;;;3.95;1.80;;;18.40;51.00;;;;;;6444015;22;20233;-82
2024/04/25 08:53:53;;;;;;;5.72;1.90;;;18.50;50.50;;;;;;6488126;22;20214;-82
2024/04/25 08:56:29;;;;;;;4.47;2.10;;;18.50;50.80;;;;;;6446093;22;20441;-82
2024/04/25 08:59:04;;;;;;;2.80;1.77;;;18.60;50.80;;;;;;6445911;22;20249;-84
2024/04/25 09:01:38;;;;;;;3.92;2.03;;;18.60;50.90;;;;;;6446897;22;20225;-84
2024/04/25 09:04:07;;;;;;;3.30;1.70;;;18.60;51.00;;;;;;6490868;22;20209;-83
2024/04/25 09:06:36;;;;;;;2.35;1.90;;;18.60;51.00;;;;;;6449553;22;20218;-83
2024/04/25 09:09:01;;;;;;;2.80;1.65;;;18.60;51.10;;;;;;6446579;22;20480;-81
2024/04/25 09:11:27;;;;;;;2.63;1.60;;;18.60;50.90;;;;;;6489486;22;20264;-80
2024/04/25 09:13:54;;;;;;;3.95;1.75;;;18.70;50.80;;;;;;6447871;22;20243;-81
2024/04/25 09:16:24;;;;;;;7.72;2.20;;;18.80;50.70;;;;;;6486852;22;20214;-82
2024/04/25 09:18:50;;;;;;;3.45;1.70;;;18.80;50.60;;;;;;6319354;22;20242;-81
2024/04/25 09:21:20;;;;;;;4.13;1.90;;;18.80;50.20;;;;;;6529743;22;20859;-83
2024/04/25 09:23:46;;;;;;;3.83;1.85;;;18.80;50.50;;;;;;6399168;22;20222;-82
2024/04/25 09:26:15;;;;;;;7.28;1.83;;;18.80;50.80;;;;;;6442318;22;20244;-81
2024/04/25 09:28:40;;;;;;;4.70;2.00;;;18.80;50.70;;;;;;6401450;22;20214;-82
2024/04/25 09:31:06;;;;;;;4.55;1.90;;;18.80;50.80;;;;;;6483709;22;20245;-82
2024/04/25 09:33:32;;;;;;;3.20;1.83;;;18.70;50.80;;;;;;6441673;22;20237;-82
2024/04/25 09:36:01;;;;;;;5.43;1.60;;;18.70;51.00;;;;;;6484732;22;20214;-83
2024/04/25 09:38:27;;;;;;;4.47;1.70;;;18.70;51.20;;;;;;6317744;22;20621;-83
2024/04/25 09:40:53;;;;;;;5.00;1.83;;;18.70;51.20;;;;;;6479499;22;20234;-82
2024/04/25 09:43:20;;;;;;;5.03;1.58;;;18.70;51.10;;;;;;6483611;22;20218;-84
2024/04/25 09:45:47;;;;;;;6.18;1.77;;;18.80;51.10;;;;;;6484792;22;20256;-82
2024/04/25 09:48:16;;;;;;;3.45;1.80;;;18.70;51.10;;;;;;6441600;22;20218;-83
2024/04/25 09:50:55;;;;;;;8.20;1.90;;;18.70;51.30;;;;;;6485718;22;20760;-83
2024/04/25 09:53:58;;;;;;;7.32;1.70;;;18.70;51.50;;;;;;6489560;22;20214;-83
2024/04/25 09:56:26;;;;;;;6.95;2.00;;;18.70;51.50;;;;;;6528985;21;20269;-84
2024/04/25 09:59:12;;;;;;;6.28;1.83;;;18.70;51.60;;;;;;6443460;22;20230;-83
2024/04/25 10:01:37;;;;;;;5.40;1.80;;;18.60;51.70;;;;;;6530336;21;20218;-84
2024/04/25 10:04:04;;;;;;;4.93;1.75;;;18.60;51.80;;;;;;6485552;22;20269;-84
2024/04/25 10:06:29;;;;;;;4.05;1.35;;;18.60;51.90;;;;;;6484035;22;20265;-83
2024/04/25 10:08:57;;;;;;;7.13;1.58;;;18.60;51.70;;;;;;6484372;22;20214;-83
2024/04/25 10:11:22;;;;;;;4.35;1.75;;;18.60;51.90;;;;;;6484749;22;20278;-83
2024/04/25 10:13:49;;;;;;;2.83;1.70;;;18.60;51.80;;;;;;6527302;22;20218;-83
2024/04/25 10:16:21;;;;;;;4.63;1.70;;;18.60;51.80;;;;;;6483866;22;20282;-83
2024/04/25 10:18:50;;;;;;;4.95;2.05;;;18.70;52.00;;;;;;6359179;22;20250;-83
2024/04/25 10:21:15;;;;;;;6.40;1.70;;;18.60;52.00;;;;;;6482491;22;20218;-83
2024/04/25 10:23:42;;;;;;;6.93;1.65;;;18.60;51.80;;;;;;6525905;22;20582;-83
2024/04/25 10:26:17;;;;;;;4.72;1.50;;;18.60;51.80;;;;;;6483547;22;20256;-83
2024/04/25 10:29:03;;;;;;;2.08;1.60;;;18.60;51.70;;;;;;6528348;22;20221;-84
2024/04/25 10:31:36;;;;;;;2.83;1.67;;;18.60;51.90;;;;;;6381644;22;20283;-83
2024/04/25 10:34:03;;;;;;;4.07;1.67;;;18.60;51.80;;;;;;6340729;22;20225;-83
2024/04/25 10:36:29;;;;;;;2.92;1.50;;;18.70;52.50;;;;;;6382360;22;20216;-83
2024/04/25 10:38:59;;;;;;;3.38;1.75;;;18.60;51.70;;;;;;6387755;22;20272;-84
2024/04/25 10:41:33;;;;;;;2.58;1.45;;;18.60;51.90;;;;;;6342951;22;20355;-83
2024/04/25 10:43:59;;;;;;;4.18;1.27;;;18.60;52.00;;;;;;6381845;22;20762;-84
2024/04/25 10:46:26;;;;;;;5.82;1.60;;;18.50;52.00;;;;;;6339833;22;20228;-83
2024/04/25 10:48:52;;;;;;;2.83;1.45;;;18.60;51.80;;;;;;6380776;22;20322;-83
2024/04/25 10:51:17;;;;;;;2.35;1.42;;;18.60;51.80;;;;;;6381189;22;20232;-83
2024/04/25 10:53:43;;;;;;;1.98;1.45;;;18.60;51.90;;;;;;6340437;22;20221;-83
2024/04/25 10:56:10;;;;;;;2.65;1.40;;;18.60;51.90;;;;;;6338971;22;20551;-83
2024/04/25 10:58:39;;;;;;;1.83;1.40;;;18.60;52.00;;;;;;6341565;22;20244;-83
2024/04/25 11:01:06;;;;;;;4.13;1.42;;;18.60;51.90;;;;;;6382713;22;20276;-84
2024/04/25 11:03:37;;;;;;;3.22;1.52;;;18.60;51.90;;;;;;6482612;22;20289;-83
2024/04/25 11:06:04;;;;;;;2.40;1.60;;;18.60;52.00;;;;;;6528317;22;20222;-84
2024/04/25 11:08:30;;;;;;;2.40;1.60;;;18.60;52.20;;;;;;6483348;22;20222;-84
2024/04/25 11:10:59;;;;;;;4.50;1.48;;;18.60;52.00;;;;;;6441193;22;20230;-83
2024/04/25 11:13:27;;;;;;;1.55;1.20;;;18.60;51.80;;;;;;6443328;22;20700;-84
2024/04/25 11:15:55;;;;;;;2.58;1.20;;;18.60;51.70;;;;;;6440894;22;20219;-84
2024/04/25 11:18:20;;;;;;;3.85;1.73;;;18.70;51.70;;;;;;6526486;22;20218;-83
2024/04/25 11:20:47;;;;;;;3.15;1.45;;;18.60;51.70;;;;;;6482817;22;20308;-84
2024/04/25 11:23:14;;;;;;;2.58;1.55;;;18.70;51.70;;;;;;6484611;22;20253;-84
2024/04/25 11:25:40;;;;;;;4.50;1.77;;;18.60;51.80;;;;;;6441607;22;20257;-84
2024/04/25 11:28:08;;;;;;;1.30;1.20;;;18.70;51.90;;;;;;6528449;22;20218;-84
2024/04/25 11:30:34;;;;;;;2.15;1.40;;;18.60;51.80;;;;;;6483948;22;20249;-83
2024/04/25 11:33:02;;;;;;;2.85;1.30;;;18.70;51.80;;;;;;6527738;22;20547;-84
2024/04/25 11:35:28;;;;;;;1.38;0.98;;;18.70;51.80;;;;;;6529343;22;20244;-84
2024/04/25 11:37:55;;;;;;;1.60;1.20;;;18.70;51.80;;;;;;6485673;22;20218;-84
2024/04/25 11:40:34;;;;;;;2.13;1.45;;;18.70;51.90;;;;;;6443154;22;20277;-84
2024/04/25 11:43:04;;;;;;;2.28;1.30;;;18.70;51.80;;;;;;6446868;22;20230;-85
2024/04/25 11:45:33;;;;;;;4.47;1.40;;;18.70;51.70;;;;;;6444600;22;20221;-84
2024/04/25 11:47:59;;;;;;;2.13;1.30;;;18.70;52.80;;;;;;6441155;22;20222;-84
2024/04/25 11:50:31;;;;;;;2.55;1.35;;;18.70;52.00;;;;;;6487738;22;20245;-82
2024/04/25 11:53:10;;;;;;;;;;;;;;;;;;;;;
2024/04/25 11:55:59;;;;;;;2.10;1.10;;;18.70;51.80;;;;;;6484336;22;20226;-82
2024/04/25 11:58:28;;;;;;;2.10;0.93;;;18.70;51.80;;;;;;6377056;22;20255;-85
2024/04/25 12:01:11;;;;;;;2.22;1.30;;;18.80;51.80;;;;;;6335531;22;20593;-84
2024/04/25 12:04:31;;;;;;;1.38;1.10;;;18.80;51.80;;;;;;6335329;22;20263;-85
2024/04/25 12:07:38;;;;;;;1.35;1.13;;;18.80;51.80;;;;;;6216397;23;20251;-85
2024/04/25 12:10:04;;;;;;;2.88;1.20;;;18.80;51.90;;;;;;6187793;23;20252;-84
2024/04/25 12:12:31;;;;;;;1.33;0.93;;;18.70;51.80;;;;;;6186212;23;20230;-84
2024/04/25 12:14:56;;;;;;;2.45;1.50;;;18.80;51.70;;;;;;6112497;23;20284;-84
2024/04/25 12:21:20;;;;;;;3.03;1.10;;;18.70;52.00;;;;;;6141149;23;20230;-83
2024/04/25 12:28:19;;;;;;;;;;;;;;;;;;;;;
2024/04/25 12:30:59;;;;;;;1.17;1.08;;;18.80;52.00;;;;;;5820086;24;20788;-84
2024/04/25 12:33:25;;;;;;;1.60;1.00;;;18.80;52.00;;;;;;5804588;24;20595;-83
2024/04/25 12:35:54;;;;;;;3.00;1.20;;;18.80;51.80;;;;;;5780429;24;20241;-83
2024/04/25 12:38:22;;;;;;;1.60;1.15;;;18.80;51.80;;;;;;5897994;24;20677;-82
2024/04/25 12:40:53;;;;;;;1.50;0.95;;;18.80;51.80;;;;;;5896811;24;20387;-82
2024/04/25 12:43:20;;;;;;;1.42;1.00;;;18.80;51.90;;;;;;5966258;24;20276;-82
2024/04/25 12:45:48;;;;;;;2.58;1.10;;;18.80;52.00;;;;;;5894962;24;20235;-82
2024/04/25 12:48:14;;;;;;;2.42;1.20;;;18.80;52.10;;;;;;5936527;23;20255;-82
2024/04/25 12:51:26;;;;;;;;;;;;;;;;;;;;;
2024/04/25 12:54:31;;;;;;;1.00;0.80;;;18.80;52.10;;;;;;5876747;24;20229;-83
2024/04/25 12:57:11;;;;;;;3.65;1.23;;;18.90;51.80;;;;;;5856116;24;20228;-83
2024/04/25 12:59:49;;;;;;;1.20;1.10;;;18.90;52.00;;;;;;5689939;24;20243;-82
2024/04/25 13:02:37;;;;;;;1.38;1.05;;;18.90;52.00;;;;;;5722363;25;20258;-83
2024/04/25 13:05:03;;;;;;;2.28;1.13;;;18.90;52.20;;;;;;5866635;24;20242;-83
2024/04/25 13:07:31;;;;;;;1.02;0.93;;;18.80;52.20;;;;;;5939631;23;20252;-84
2024/04/25 13:10:00;;;;;;;4.15;1.20;;;18.90;52.10;;;;;;5968414;23;20350;-84